Time;durP1;ratioP1;P1;durP2;ratioP2;P2;SDS_P1;SDS_P2;PMS_P1;PMS_P2;Temp;Humidity;BMP_temperature;BMP_pressure;BME280_temperature;BME280_humidity;BME280_pressure;Samples;Min_cycle;Max_cycle;Signal;HPM_P1;HPM_P2
2021/06/29 00:00:15;;;;;;;5.25;3.80;;;;;;;20.57;62.70;99187.74;1745803;81;20913;-44
2021/06/29 00:02:42;;;;;;;6.17;3.85;;;;;;;20.56;62.67;99191.09;1738078;81;21072;-44
2021/06/29 00:05:09;;;;;;;5.42;3.85;;;;;;;20.53;62.79;99185.66;1759605;81;21457;-44
2021/06/29 00:07:36;;;;;;;9.85;4.12;;;;;;;20.46;63.03;99182.48;1749489;81;21123;-44
2021/06/29 00:10:07;;;;;;;4.92;3.67;;;;;;;20.46;63.09;99189.97;1758886;81;21002;-45
2021/06/29 00:12:33;;;;;;;5.60;3.80;;;;;;;20.47;63.11;99187.40;1745673;81;21030;-44
2021/06/29 00:15:00;;;;;;;4.00;3.60;;;;;;;20.48;63.10;99194.46;1746575;81;21029;-44
2021/06/29 00:17:26;;;;;;;6.22;3.80;;;;;;;20.47;63.05;99191.53;1754388;81;21563;-44
2021/06/29 00:19:53;;;;;;;6.45;4.25;;;;;;;20.48;63.23;99186.20;1747627;81;21829;-44
2021/06/29 00:22:19;;;;;;;4.25;3.50;;;;;;;20.19;63.36;99144.74;1738348;81;20996;-45
2021/06/29 00:24:46;;;;;;;5.15;3.77;;;;;;;20.45;63.32;99180.16;1753729;81;20915;-44
2021/06/29 00:27:12;;;;;;;6.25;3.75;;;;;;;20.40;63.47;99195.22;1748828;81;21086;-44
2021/06/29 00:29:39;;;;;;;5.50;3.60;;;;;;;20.43;63.40;99188.09;1765216;81;21005;-44
2021/06/29 00:32:07;;;;;;;6.15;3.75;;;;;;;20.49;63.21;99187.72;1751665;81;21130;-44
2021/06/29 00:34:33;;;;;;;6.35;3.50;;;;;;;20.56;62.99;99188.34;1741029;81;21033;-45
2021/06/29 00:37:00;;;;;;;6.28;3.62;;;;;;;20.61;62.85;99188.43;1762678;81;21559;-44
2021/06/29 00:39:26;;;;;;;4.78;3.70;;;;;;;20.61;62.78;99181.55;1751138;81;21029;-45
2021/06/29 00:41:53;;;;;;;6.42;3.83;;;;;;;20.63;62.87;99184.02;1742330;81;21052;-44
2021/06/29 00:44:22;;;;;;;4.75;3.67;;;;;;;20.66;63.00;99183.18;1745301;81;21057;-45
2021/06/29 00:46:49;;;;;;;4.67;4.10;;;;;;;20.69;62.99;99188.41;1741798;81;20987;-45
2021/06/29 00:49:16;;;;;;;5.80;3.87;;;;;;;20.71;62.83;99192.30;1738190;81;21037;-45
2021/06/29 00:51:43;;;;;;;5.22;3.72;;;;;;;20.75;62.58;99189.45;1739323;81;21607;-44
2021/06/29 00:54:10;;;;;;;5.40;3.70;;;;;;;20.79;62.40;99186.78;1749270;81;21136;-44
2021/06/29 00:56:37;;;;;;;5.53;4.12;;;;;;;20.85;62.32;99183.50;1733853;82;21134;-44
2021/06/29 00:59:04;;;;;;;6.50;3.80;;;;;;;20.86;62.04;99185.83;1758275;80;21551;-45
2021/06/29 01:01:31;;;;;;;5.87;4.03;;;;;;;20.88;61.96;99180.64;1760200;80;21104;-45
2021/06/29 01:03:58;;;;;;;5.22;4.15;;;;;;;20.89;61.90;99190.47;1752411;80;21053;-44
2021/06/29 01:06:25;;;;;;;5.50;4.03;;;;;;;20.86;62.03;99192.72;1761152;80;21510;-45
2021/06/29 01:08:52;;;;;;;7.00;4.28;;;;;;;20.84;62.00;99188.23;1780307;80;21174;-44
2021/06/29 01:11:18;;;;;;;7.35;3.85;;;;;;;20.80;62.12;99193.06;1773201;80;21052;-45
2021/06/29 01:13:45;;;;;;;7.83;3.95;;;;;;;20.77;62.24;99189.17;1769687;80;21554;-45
2021/06/29 01:16:13;;;;;;;4.10;3.62;;;;;;;20.82;62.44;99188.66;1760213;80;20988;-45
2021/06/29 01:18:42;;;;;;;6.25;4.05;;;;;;;20.88;62.51;99190.30;1775425;80;20972;-45
2021/06/29 01:21:15;;;;;;;5.75;4.05;;;;;;;20.92;62.32;99195.10;1712379;83;21171;-44
2021/06/29 01:23:44;;;;;;;7.87;4.10;;;;;;;20.96;62.03;99190.27;1779878;80;20984;-44
2021/06/29 01:26:21;;;;;;;6.87;4.20;;;;;;;20.98;62.03;99198.89;1698329;83;21017;-44
2021/06/29 01:31:23;;;;;;;5.55;4.15;;;;;;;20.88;62.47;99195.02;1758279;80;21009;-44
2021/06/29 01:33:50;;;;;;;5.05;3.92;;;;;;;20.82;62.37;99194.77;1779103;80;21116;-45
2021/06/29 01:36:20;;;;;;;4.97;3.77;;;;;;;20.83;62.73;99192.19;1700228;83;21546;-45
2021/06/29 01:38:47;;;;;;;;;;;;;;;20.88;62.60;99190.89;1758327;80;21056;-45
2021/06/29 01:41:15;;;;;;;6.60;3.80;;;;;;;20.91;62.63;99188.06;1764480;80;20160;-44
2021/06/29 01:43:52;;;;;;;5.05;3.90;;;;;;;20.78;63.05;99187.98;1750893;80;21540;-45
2021/06/29 01:46:15;;;;;;;6.72;3.80;;;;;;;20.79;63.27;99186.78;1754933;80;21032;-44
2021/06/29 01:48:49;;;;;;;7.20;3.98;;;;;;;20.82;63.22;99190.63;1755234;80;20930;-44
2021/06/29 01:51:16;;;;;;;6.87;4.03;;;;;;;20.84;63.00;99190.98;1780476;80;21594;-44
2021/06/29 01:53:42;;;;;;;4.00;3.60;;;;;;;20.85;62.92;99186.25;1761585;80;21012;-44
2021/06/29 01:56:14;;;;;;;4.55;3.72;;;;;;;20.85;62.92;99188.41;1752399;80;21446;-45
2021/06/29 01:58:37;;;;;;;4.20;3.75;;;;;;;20.88;63.01;99186.75;1751622;80;21154;-44
2021/06/29 02:01:04;;;;;;;6.65;3.62;;;;;;;20.87;62.54;99190.11;1754543;80;20886;-45
2021/06/29 02:03:30;;;;;;;6.00;4.25;;;;;;;20.77;62.49;99192.53;1752581;80;21559;-44
2021/06/29 02:05:57;;;;;;;7.17;4.33;;;;;;;20.65;62.68;99186.36;1761791;80;21029;-44
2021/06/29 02:08:23;;;;;;;6.75;4.42;;;;;;;20.56;62.86;99184.81;1752039;80;21335;-45
2021/06/29 02:10:50;;;;;;;6.83;4.30;;;;;;;20.51;63.12;99186.70;1756370;80;21140;-44
2021/06/29 02:13:17;;;;;;;5.62;4.20;;;;;;;20.46;63.35;99185.84;1784942;80;20945;-44
2021/06/29 02:15:43;;;;;;;7.20;3.92;;;;;;;20.41;63.47;99189.11;1752361;80;21551;-44
2021/06/29 02:18:10;;;;;;;4.55;3.98;;;;;;;20.30;63.73;99188.75;1759471;80;21040;-44
2021/06/29 02:20:36;;;;;;;5.80;4.28;;;;;;;20.24;64.00;99191.03;1769112;80;21271;-45
2021/06/29 02:23:04;;;;;;;5.35;4.55;;;;;;;20.21;64.18;99184.41;1750760;80;21101;-45
2021/06/29 02:25:31;;;;;;;6.28;4.50;;;;;;;20.15;64.40;99188.88;1753208;80;21547;-44
2021/06/29 02:27:58;;;;;;;6.92;5.00;;;;;;;20.11;64.63;99191.53;1752190;80;20991;-45
2021/06/29 02:30:24;;;;;;;6.47;4.55;;;;;;;20.08;64.84;99185.52;1766563;80;21083;-45
2021/06/29 02:32:51;;;;;;;6.45;4.30;;;;;;;20.09;64.96;99186.45;1711047;82;21571;-44
2021/06/29 02:35:17;;;;;;;6.00;4.47;;;;;;;20.13;64.98;99187.77;1752096;80;21126;-44
2021/06/29 02:37:44;;;;;;;10.75;4.80;;;;;;;20.17;64.92;99187.86;1755629;80;21468;-45
2021/06/29 02:40:12;;;;;;;7.97;4.78;;;;;;;20.18;64.80;99190.79;1748921;80;21368;-44
2021/06/29 02:42:39;;;;;;;5.45;4.83;;;;;;;20.18;64.82;99199.05;1764006;80;21020;-44
2021/06/29 02:45:07;;;;;;;7.65;5.20;;;;;;;20.18;64.87;99196.89;1754212;80;21044;-44
2021/06/29 02:47:36;;;;;;;11.30;6.07;;;;;;;20.12;64.99;99201.34;1773393;80;21468;-44
2021/06/29 02:50:05;;;;;;;7.65;5.00;;;;;;;20.03;65.23;99195.05;1765328;80;21064;-44
2021/06/29 02:52:32;;;;;;;5.40;4.90;;;;;;;20.01;65.58;99194.70;1764219;80;21030;-44
2021/06/29 02:55:00;;;;;;;9.83;5.30;;;;;;;20.05;65.79;99194.61;1763337;80;21071;-44
2021/06/29 02:57:27;;;;;;;11.57;5.45;;;;;;;20.06;65.75;99196.95;1744399;82;21088;-45
2021/06/29 02:59:54;;;;;;;7.10;5.62;;;;;;;20.08;65.64;99197.91;1746065;80;21839;-44
2021/06/29 03:02:20;;;;;;;8.53;5.83;;;;;;;20.07;65.86;99198.50;1751790;80;21011;-44
2021/06/29 03:04:47;;;;;;;9.13;5.78;;;;;;;20.07;65.54;99194.38;1707751;82;21033;-45
2021/06/29 03:07:13;;;;;;;9.75;5.25;;;;;;;20.06;65.67;99200.30;1755917;80;21017;-44
2021/06/29 03:09:40;;;;;;;8.03;5.33;;;;;;;20.04;65.66;99202.12;1754735;80;21042;-44
2021/06/29 03:12:08;;;;;;;12.28;6.00;;;;;;;20.08;65.82;99202.81;1743705;80;21871;-44
2021/06/29 03:14:37;;;;;;;8.00;4.78;;;;;;;20.16;65.99;99212.45;1753168;80;20989;-44
2021/06/29 03:17:05;;;;;;;6.72;4.53;;;;;;;20.21;65.87;99210.56;1752753;80;20981;-45
2021/06/29 03:19:32;;;;;;;5.25;4.75;;;;;;;20.24;65.96;99211.08;1758358;80;21060;-44
2021/06/29 03:21:59;;;;;;;8.10;5.50;;;;;;;20.26;65.48;99212.03;1753880;80;21107;-44
2021/06/29 03:24:27;;;;;;;6.15;5.28;;;;;;;20.23;65.27;99217.81;1748069;80;21106;-44
2021/06/29 03:26:53;;;;;;;7.83;5.58;;;;;;;20.24;65.52;99223.47;1758357;80;21058;-45
2021/06/29 03:29:20;;;;;;;6.25;5.08;;;;;;;20.22;65.47;99216.84;1745548;80;21100;-45
2021/06/29 03:31:46;;;;;;;9.13;5.83;;;;;;;20.22;65.42;99219.00;1752947;80;21382;-45
2021/06/29 03:34:13;;;;;;;8.95;6.00;;;;;;;20.23;65.43;99221.16;1753287;80;21036;-44
2021/06/29 03:36:41;;;;;;;6.35;5.37;;;;;;;20.24;65.38;99222.09;1749053;80;21884;-44
2021/06/29 03:39:08;;;;;;;6.08;5.05;;;;;;;20.24;65.45;99215.20;1750485;80;21082;-45
2021/06/29 03:41:35;;;;;;;7.08;5.30;;;;;;;20.22;65.41;99214.88;1752318;80;21088;-44
2021/06/29 03:44:01;;;;;;;6.70;5.37;;;;;;;20.23;65.48;99212.30;1757659;80;21118;-45
2021/06/29 03:46:28;;;;;;;7.10;5.28;;;;;;;20.25;65.53;99209.88;1746200;80;21079;-44
2021/06/29 03:48:55;;;;;;;8.95;5.62;;;;;;;20.32;65.77;99208.39;1749749;80;21124;-45
2021/06/29 03:51:21;;;;;;;6.37;5.78;;;;;;;20.41;65.62;99204.25;1753775;80;21012;-44
2021/06/29 03:53:48;;;;;;;7.53;5.20;;;;;;;20.47;65.57;99206.08;1752841;80;21512;-45
2021/06/29 03:56:24;;;;;;;7.05;4.78;;;;;;;20.53;65.51;99204.94;1752431;80;21092;-45
2021/06/29 03:58:52;;;;;;;6.58;5.10;;;;;;;20.63;65.50;99201.15;1753995;80;21108;-44
2021/06/29 04:01:19;;;;;;;6.15;4.87;;;;;;;20.77;65.48;99205.70;1761402;80;21641;-45
2021/06/29 04:03:46;;;;;;;6.70;4.80;;;;;;;20.85;65.06;99202.19;1756280;80;21012;-44
2021/06/29 04:06:12;;;;;;;6.70;4.95;;;;;;;20.88;65.18;99209.58;1759833;80;21553;-44
2021/06/29 04:08:39;;;;;;;6.17;5.47;;;;;;;20.87;65.17;99214.13;1752653;80;20982;-45
2021/06/29 04:11:05;;;;;;;6.22;4.78;;;;;;;20.79;65.45;99214.93;1761872;80;21069;-44
2021/06/29 04:13:32;;;;;;;5.03;4.58;;;;;;;20.79;65.68;99216.31;1757839;80;21103;-44
2021/06/29 04:15:58;;;;;;;9.43;4.90;;;;;;;20.79;65.84;99217.09;1756525;80;20989;-45
2021/06/29 04:18:25;;;;;;;7.08;5.20;;;;;;;20.86;65.70;99216.14;1757467;80;21602;-45
2021/06/29 04:20:51;;;;;;;8.70;5.10;;;;;;;20.86;65.85;99213.98;1762981;80;21040;-45
2021/06/29 04:23:18;;;;;;;7.08;5.15;;;;;;;20.85;65.92;99217.95;1756505;80;21076;-45
2021/06/29 04:25:44;;;;;;;10.28;4.70;;;;;;;20.85;66.08;99216.56;1762299;80;21162;-45
2021/06/29 04:28:11;;;;;;;6.40;4.33;;;;;;;20.88;66.23;99219.23;1775149;80;20984;-45
2021/06/29 04:30:37;;;;;;;6.85;4.62;;;;;;;20.99;66.00;99221.12;1762880;80;21516;-45
2021/06/29 04:33:04;;;;;;;5.62;4.75;;;;;;;21.12;65.75;99210.92;1766558;80;20996;-44
2021/06/29 04:35:31;;;;;;;7.75;4.72;;;;;;;21.24;65.73;99215.77;1757168;80;21049;-45
2021/06/29 04:37:58;;;;;;;7.50;4.97;;;;;;;21.35;64.38;99213.33;1775640;80;21227;-45
2021/06/29 04:40:24;;;;;;;7.15;5.60;;;;;;;20.97;63.90;99142.22;1761171;80;20969;-45
2021/06/29 04:42:51;;;;;;;7.78;5.62;;;;;;;21.52;63.34;99212.05;1759173;80;21060;-44
2021/06/29 04:45:17;;;;;;;8.30;4.92;;;;;;;21.54;63.43;99211.02;1760847;80;20964;-45
2021/06/29 04:47:47;;;;;;;7.10;4.70;;;;;;;21.62;62.94;99213.14;1757652;80;21571;-45
2021/06/29 04:50:15;;;;;;;8.83;4.97;;;;;;;21.68;62.42;99209.23;1755876;80;21121;-45
2021/06/29 04:52:42;;;;;;;7.17;4.75;;;;;;;21.72;62.40;99216.03;1780363;80;21067;-46
2021/06/29 04:55:10;;;;;;;6.40;4.90;;;;;;;21.74;62.90;99210.83;1752770;80;20977;-45
2021/06/29 04:57:37;;;;;;;6.85;4.80;;;;;;;21.79;62.76;99215.81;1743017;80;20998;-44
2021/06/29 05:00:09;;;;;;;8.93;4.87;;;;;;;21.84;62.40;99211.91;1748039;80;21096;-45
2021/06/29 05:02:35;;;;;;;8.50;4.90;;;;;;;21.88;62.51;99211.19;1695217;84;21112;-45
2021/06/29 05:05:06;;;;;;;5.60;4.33;;;;;;;21.91;62.35;99204.81;1761111;80;21124;-45
2021/06/29 05:07:32;;;;;;;6.17;4.92;;;;;;;22.01;62.35;99214.80;1746776;80;21079;-45
2021/06/29 05:09:59;;;;;;;8.23;5.12;;;;;;;22.16;62.06;99215.14;1745746;80;20977;-45
2021/06/29 05:12:25;;;;;;;5.05;4.40;;;;;;;22.28;61.54;99207.45;1732057;81;21103;-45
2021/06/29 05:14:52;;;;;;;6.87;4.80;;;;;;;22.42;61.03;99213.91;1745586;80;22118;-45
2021/06/29 05:17:18;;;;;;;7.75;4.70;;;;;;;22.50;60.47;99208.95;1737408;81;20970;-45
2021/06/29 05:19:45;;;;;;;7.65;5.42;;;;;;;22.57;60.14;99209.31;1749580;80;20981;-45
2021/06/29 05:22:11;;;;;;;5.67;4.67;;;;;;;22.62;60.20;99205.99;1743539;82;20934;-45
2021/06/29 05:24:38;;;;;;;5.33;4.83;;;;;;;22.67;60.28;99206.81;1762135;80;21036;-44
2021/06/29 05:27:06;;;;;;;7.85;4.95;;;;;;;22.72;60.23;99204.91;1761986;80;21809;-46
2021/06/29 05:29:32;;;;;;;8.88;4.87;;;;;;;22.76;59.50;99198.64;1759907;80;21023;-45
2021/06/29 05:31:59;;;;;;;6.53;4.28;;;;;;;22.75;58.98;99202.02;1742161;82;21610;-45
2021/06/29 05:34:25;;;;;;;7.47;4.72;;;;;;;22.77;58.70;99198.21;1677387;85;21781;-45
2021/06/29 05:36:52;;;;;;;5.17;4.50;;;;;;;22.82;59.00;99207.92;1741832;82;21084;-45
2021/06/29 05:39:18;;;;;;;5.00;4.40;;;;;;;22.87;59.24;99201.23;1763041;80;21193;-45
2021/06/29 05:41:45;;;;;;;6.10;4.35;;;;;;;22.98;59.43;99193.97;1758181;80;21082;-45
2021/06/29 05:44:12;;;;;;;6.65;4.12;;;;;;;23.13;58.81;99200.55;1740736;80;20942;-45
2021/06/29 05:46:40;;;;;;;6.85;4.08;;;;;;;23.24;57.21;99196.01;1745043;80;20949;-45
2021/06/29 05:49:13;;;;;;;4.75;4.08;;;;;;;23.29;57.68;99200.97;1743115;82;21036;-45
2021/06/29 05:51:43;;;;;;;7.92;4.20;;;;;;;23.37;57.38;99201.67;1745175;80;21114;-45
2021/06/29 05:54:08;;;;;;;5.50;4.17;;;;;;;23.47;56.65;99200.38;1749696;80;20997;-45
2021/06/29 05:56:35;;;;;;;4.85;4.25;;;;;;;23.52;56.35;99200.58;1752580;80;21048;-44
2021/06/29 05:59:01;;;;;;;5.65;4.33;;;;;;;23.55;56.63;99203.82;1752427;80;21096;-44
2021/06/29 06:01:28;;;;;;;6.20;4.47;;;;;;;23.62;56.74;99192.50;1747609;82;21060;-45
2021/06/29 06:03:54;;;;;;;4.92;4.10;;;;;;;23.66;56.78;99194.52;1748800;82;21117;-44
2021/06/29 06:06:21;;;;;;;6.40;4.22;;;;;;;23.71;56.45;99200.86;1762367;80;21064;-51
2021/06/29 06:08:47;;;;;;;5.03;3.75;;;;;;;23.74;56.60;99199.95;1754654;80;20961;-47
2021/06/29 06:12:29;;;;;;;5.75;3.70;;;;;;;23.85;55.74;99194.02;1788631;79;22713;-45
2021/06/29 06:14:56;;;;;;;5.12;3.85;;;;;;;23.86;55.87;99196.17;1725693;83;21613;-45
2021/06/29 06:17:23;;;;;;;3.98;3.58;;;;;;;23.97;56.12;99199.30;1724844;83;21171;-45
2021/06/29 06:19:49;;;;;;;5.83;3.70;;;;;;;24.07;56.11;99198.89;1725540;83;22228;-45
2021/06/29 06:22:16;;;;;;;3.58;3.27;;;;;;;24.14;54.81;99199.23;1725478;83;20925;-45
2021/06/29 06:24:43;;;;;;;4.28;3.87;;;;;;;24.16;53.71;99196.19;1725629;83;20933;-45
2021/06/29 06:27:13;;;;;;;8.00;3.80;;;;;;;24.20;55.37;99205.77;1693536;84;20972;-45
2021/06/29 06:29:38;;;;;;;4.50;3.50;;;;;;;24.28;55.16;99200.09;1694050;84;21152;-45
2021/06/29 06:32:06;;;;;;;4.12;3.02;;;;;;;24.37;54.59;99204.89;1720449;83;21002;-45
2021/06/29 06:34:32;;;;;;;3.95;3.33;;;;;;;24.44;54.05;99204.62;1723691;83;22281;-45
2021/06/29 06:36:59;;;;;;;5.15;3.40;;;;;;;24.54;54.61;99205.59;1723402;83;21080;-45
2021/06/29 06:39:25;;;;;;;4.45;3.33;;;;;;;24.63;54.34;99208.99;1723398;83;22086;-45
2021/06/29 06:41:52;;;;;;;3.45;2.95;;;;;;;24.69;53.35;99211.30;1723439;83;21116;-45
2021/06/29 06:44:18;;;;;;;3.35;2.77;;;;;;;24.72;50.67;99211.01;1723376;83;21015;-44
2021/06/29 06:46:45;;;;;;;4.87;3.20;;;;;;;24.72;50.12;99206.84;1723462;82;21001;-45
2021/06/29 06:49:11;;;;;;;3.10;2.80;;;;;;;24.77;51.73;99207.63;1723348;83;20977;-45
2021/06/29 06:51:38;;;;;;;5.45;3.20;;;;;;;24.81;50.64;99199.94;1723446;83;21530;-45
2021/06/29 06:54:05;;;;;;;3.17;2.90;;;;;;;24.83;51.28;99204.42;1723447;83;21555;-45
2021/06/29 06:56:32;;;;;;;3.35;3.05;;;;;;;24.88;51.98;99196.30;1723625;83;20967;-45
2021/06/29 06:58:58;;;;;;;6.40;3.20;;;;;;;24.97;52.56;99199.08;1706546;83;20980;-45
2021/06/29 07:01:25;;;;;;;5.08;3.30;;;;;;;25.04;51.98;99197.98;1694644;84;21008;-44
2021/06/29 07:03:51;;;;;;;3.45;3.15;;;;;;;25.10;52.08;99205.86;1694665;84;21024;-44
2021/06/29 07:06:18;;;;;;;4.10;3.47;;;;;;;25.17;51.79;99196.47;1694479;84;21883;-44
2021/06/29 07:08:44;;;;;;;5.83;3.22;;;;;;;25.22;52.81;99195.23;1694437;84;20976;-45
2021/06/29 07:11:11;;;;;;;4.65;3.47;;;;;;;25.28;52.42;99201.69;1693456;84;20970;-45
2021/06/29 07:13:37;;;;;;;4.30;3.75;;;;;;;25.33;50.67;99190.59;1682512;85;21106;-45
2021/06/29 07:16:05;;;;;;;4.17;3.77;;;;;;;25.39;51.51;99190.91;1682627;85;21113;-45
2021/06/29 07:18:31;;;;;;;4.25;3.80;;;;;;;25.43;51.07;99197.06;1700129;84;21852;-45
2021/06/29 07:20:58;;;;;;;3.83;3.42;;;;;;;25.46;51.40;99195.38;1704155;84;20934;-45
2021/06/29 07:23:24;;;;;;;5.08;3.60;;;;;;;25.47;50.48;99193.51;1707353;84;21574;-45
2021/06/29 07:25:51;;;;;;;4.33;3.65;;;;;;;25.49;50.73;99202.77;1707239;84;21034;-44
2021/06/29 07:28:18;;;;;;;4.75;3.83;;;;;;;25.55;50.96;99202.95;1707292;84;21102;-44
2021/06/29 07:30:44;;;;;;;4.97;3.87;;;;;;;25.62;51.35;99204.00;1707269;84;21131;-44
2021/06/29 07:33:11;;;;;;;4.53;3.58;;;;;;;25.71;51.37;99206.77;1707237;84;21040;-45
2021/06/29 07:35:38;;;;;;;5.53;4.10;;;;;;;25.77;51.21;99206.30;1707314;84;20982;-45
2021/06/29 07:38:06;;;;;;;5.50;3.90;;;;;;;25.82;50.84;99205.05;1707362;84;21066;-45
2021/06/29 07:40:33;;;;;;;4.87;3.40;;;;;;;25.86;50.84;99210.44;1707189;84;21567;-44
2021/06/29 07:43:00;;;;;;;7.42;3.52;;;;;;;25.91;50.87;99201.48;1707143;84;21150;-44
2021/06/29 07:45:29;;;;;;;5.53;3.12;;;;;;;25.93;48.87;99208.12;1707244;84;21554;-45
2021/06/29 07:48:00;;;;;;;3.55;2.75;;;;;;;25.96;48.01;99205.78;1707402;84;20951;-44
2021/06/29 07:50:25;;;;;;;4.28;3.02;;;;;;;26.04;47.42;99202.69;1707182;84;21046;-44
2021/06/29 07:52:52;;;;;;;3.50;2.98;;;;;;;26.07;47.64;99201.13;1707426;84;21048;-44
2021/06/29 07:55:19;;;;;;;3.87;3.33;;;;;;;26.14;48.21;99200.03;1707105;84;21133;-44
2021/06/29 07:57:46;;;;;;;5.58;3.20;;;;;;;26.17;47.51;99197.08;1707283;84;21527;-44
2021/06/29 08:00:14;;;;;;;3.20;2.98;;;;;;;26.13;47.24;99195.09;1707279;84;21026;-44
2021/06/29 08:02:41;;;;;;;3.45;2.92;;;;;;;26.05;47.03;99200.04;1707827;83;21077;-44
2021/06/29 08:05:09;;;;;;;4.75;3.22;;;;;;;25.90;45.40;99202.09;1707145;84;21886;-45
2021/06/29 08:07:35;;;;;;;5.10;2.70;;;;;;;25.79;45.96;99201.06;1707556;83;21441;-45
2021/06/29 08:10:06;;;;;;;5.40;2.70;;;;;;;25.70;46.25;99203.24;1707130;84;21552;-45
2021/06/29 08:12:33;;;;;;;5.58;3.10;;;;;;;25.59;45.50;99197.39;1713507;83;21085;-45
2021/06/29 08:15:00;;;;;;;3.25;2.60;;;;;;;25.49;46.51;99202.16;1715922;83;21084;-45
2021/06/29 08:17:28;;;;;;;2.98;2.72;;;;;;;25.44;47.42;99195.84;1715875;83;21005;-44
2021/06/29 08:19:55;;;;;;;2.67;2.47;;;;;;;25.39;48.07;99192.29;1715975;83;21839;-45
2021/06/29 08:22:22;;;;;;;6.22;2.95;;;;;;;25.33;48.07;99191.36;1716007;83;21033;-45
2021/06/29 08:24:49;;;;;;;3.15;2.62;;;;;;;25.31;48.99;99196.62;1715882;83;21004;-45
2021/06/29 08:27:16;;;;;;;4.35;2.80;;;;;;;25.33;50.14;99202.46;1716186;83;21025;-45
2021/06/29 08:29:44;;;;;;;2.47;2.27;;;;;;;25.40;49.67;99198.00;1715983;83;21109;-45
2021/06/29 08:32:11;;;;;;;3.50;2.67;;;;;;;25.49;48.81;99192.44;1716143;83;21155;-45
2021/06/29 08:34:38;;;;;;;2.52;2.33;;;;;;;25.66;48.70;99181.04;1715789;83;21048;-45
2021/06/29 08:37:04;;;;;;;5.47;2.70;;;;;;;25.85;48.70;99174.20;1716195;83;21598;-45
2021/06/29 08:39:31;;;;;;;5.10;4.05;;;;;;;26.07;48.19;99171.95;1720471;83;21028;-45
2021/06/29 08:41:57;;;;;;;3.15;2.67;;;;;;;26.26;48.01;99188.73;1720828;83;20996;-45
2021/06/29 08:44:24;;;;;;;6.60;2.80;;;;;;;26.31;46.16;99190.88;1720570;83;21134;-45
2021/06/29 08:46:51;;;;;;;4.00;2.60;;;;;;;26.28;46.12;99197.38;1720107;82;21570;-45
2021/06/29 08:49:17;;;;;;;3.98;2.40;;;;;;;26.22;47.07;99202.03;1691705;84;21080;-45
2021/06/29 08:51:44;;;;;;;4.72;2.33;;;;;;;26.16;46.36;99201.09;1691925;84;21024;-45
2021/06/29 08:54:10;;;;;;;2.33;2.12;;;;;;;26.06;44.50;99203.75;1718525;83;21092;-45
2021/06/29 08:56:38;;;;;;;2.37;2.02;;;;;;;25.95;44.53;99203.47;1720665;83;22001;-45
2021/06/29 08:59:05;;;;;;;3.27;2.27;;;;;;;25.85;44.50;99197.81;1666132;84;20984;-45
2021/06/29 09:01:33;;;;;;;2.50;1.95;;;;;;;25.77;42.92;99194.58;1691839;84;20944;-45
2021/06/29 09:03:59;;;;;;;2.15;1.62;;;;;;;25.72;42.75;99194.42;1691629;84;20989;-45
2021/06/29 09:06:36;;;;;;;1.95;1.75;;;;;;;25.75;42.41;99190.12;1691603;84;21040;-45
2021/06/29 09:09:27;;;;;;;2.22;1.72;;;;;;;25.85;41.87;99197.16;1691725;84;21881;-45
2021/06/29 09:11:56;;;;;;;4.22;2.45;;;;;;;26.02;42.46;99185.09;1687244;84;21083;-45
2021/06/29 09:14:30;;;;;;;3.07;1.80;;;;;;;26.23;42.23;99188.30;1672811;85;21091;-46
2021/06/29 09:17:18;;;;;;;2.80;2.10;;;;;;;26.44;42.63;99177.36;1679225;85;21523;-45
2021/06/29 09:19:45;;;;;;;2.95;2.62;;;;;;;26.59;42.56;99180.38;1679061;85;21514;-45
2021/06/29 09:22:31;;;;;;;2.52;2.20;;;;;;;26.63;42.65;99182.35;1700661;82;22341;-45
2021/06/29 09:25:01;;;;;;;5.58;2.83;;;;;;;26.61;43.71;99179.91;1706918;82;21069;-45
2021/06/29 09:27:45;;;;;;;2.30;2.10;;;;;;;26.50;45.62;99168.53;1707287;84;21762;-45
2021/06/29 09:30:34;;;;;;;2.77;2.00;;;;;;;26.36;46.31;99163.83;1743128;81;21582;-45
2021/06/29 09:33:08;;;;;;;2.05;1.85;;;;;;;26.26;46.97;99165.11;1743498;81;21063;-45
2021/06/29 09:35:35;;;;;;;3.12;2.40;;;;;;;26.19;48.40;99157.72;1733127;81;21116;-45
2021/06/29 09:38:03;;;;;;;3.90;2.35;;;;;;;26.11;48.76;99149.55;1679333;85;20972;-45
2021/06/29 09:40:31;;;;;;;5.20;2.62;;;;;;;25.97;48.78;99141.28;1713583;83;21077;-45
2021/06/29 09:43:14;;;;;;;2.60;2.40;;;;;;;25.88;49.29;99144.87;1679200;85;20948;-45
2021/06/29 09:45:51;;;;;;;3.25;2.70;;;;;;;25.88;50.49;99144.87;1686000;84;21021;-45
2021/06/29 09:48:28;;;;;;;5.58;2.50;;;;;;;26.11;49.69;99139.83;1679284;82;21116;-45
2021/06/29 09:50:59;;;;;;;5.05;2.77;;;;;;;26.39;48.92;99130.13;1678440;85;21013;-45
2021/06/29 09:53:27;;;;;;;4.07;2.80;;;;;;;26.71;47.24;99123.77;1697032;83;20980;-45
2021/06/29 09:55:55;;;;;;;;;;;;;;;26.95;43.99;99126.55;1709886;84;21012;-45
2021/06/29 09:58:22;;;;;;;4.05;2.52;;;;;;;27.10;45.10;99121.01;1685038;84;20192;-45
2021/06/29 10:00:55;;;;;;;3.67;2.90;;;;;;;27.13;43.87;99125.61;1713637;82;21826;-45
2021/06/29 10:03:37;;;;;;;3.02;2.67;;;;;;;27.18;44.53;99128.50;1713623;83;20970;-45
2021/06/29 10:06:14;;;;;;;3.08;2.58;;;;;;;27.19;43.09;99126.49;1713440;83;21914;-45
2021/06/29 10:08:43;;;;;;;2.37;2.17;;;;;;;27.20;42.90;99126.64;1713630;82;21599;-45
2021/06/29 10:11:15;;;;;;;2.83;2.42;;;;;;;27.30;41.62;99128.72;1707596;83;21560;-45
2021/06/29 10:13:59;;;;;;;3.70;2.72;;;;;;;27.47;40.90;99130.54;1713328;82;21987;-45
2021/06/29 10:16:39;;;;;;;3.30;2.77;;;;;;;27.67;40.78;99131.29;1713441;83;20977;-46
2021/06/29 10:21:42;;;;;;;4.90;2.67;;;;;;;27.89;40.53;99114.92;1713476;83;21037;-45
2021/06/29 10:24:10;;;;;;;3.55;2.80;;;;;;;27.98;39.00;99113.41;1713213;82;21515;-45
2021/06/29 10:26:39;;;;;;;5.65;2.92;;;;;;;27.89;40.16;99075.14;1713569;83;21169;-45
2021/06/29 10:29:11;;;;;;;5.12;2.40;;;;;;;28.34;39.51;99105.86;1713823;83;20913;-45
2021/06/29 10:31:50;;;;;;;2.98;2.60;;;;;;;28.39;37.50;99105.94;1713451;82;21069;-45
2021/06/29 10:34:17;;;;;;;4.53;2.83;;;;;;;28.35;38.98;99110.19;1713557;83;20965;-45
2021/06/29 10:36:47;;;;;;;5.22;2.60;;;;;;;28.28;39.27;99111.34;1713594;82;21539;-45
2021/06/29 10:39:18;;;;;;;2.70;2.50;;;;;;;28.21;40.34;99104.80;1713437;83;21158;-45
2021/06/29 10:41:49;;;;;;;3.08;2.65;;;;;;;28.20;40.47;99108.06;1713381;83;21626;-45
2021/06/29 10:44:18;;;;;;;3.98;2.60;;;;;;;28.16;40.83;99108.90;1696833;83;20962;-45
2021/06/29 10:46:47;;;;;;;3.60;2.67;;;;;;;28.27;40.05;99107.67;1713834;83;21033;-45
2021/06/29 10:49:39;;;;;;;2.77;2.58;;;;;;;28.43;40.27;99102.93;1713723;83;21105;-45
2021/06/29 10:52:26;;;;;;;3.85;2.60;;;;;;;28.66;40.43;99101.95;1715434;82;21788;-45
2021/06/29 10:54:59;;;;;;;3.00;2.40;;;;;;;28.93;38.75;99102.95;1743040;81;21033;-45
2021/06/29 10:57:29;;;;;;;4.75;2.20;;;;;;;29.16;37.30;99108.77;1743187;82;21045;-45
2021/06/29 10:59:56;;;;;;;2.75;2.52;;;;;;;29.27;37.42;99107.48;1748619;81;21029;-46
2021/06/29 11:02:36;;;;;;;2.72;2.30;;;;;;;29.39;37.01;99100.02;1748594;82;21035;-46
2021/06/29 11:05:09;;;;;;;3.10;2.37;;;;;;;29.57;36.99;99096.88;1749151;82;21781;-45
2021/06/29 11:07:38;;;;;;;2.70;2.30;;;;;;;29.80;36.69;99102.14;1748472;82;20929;-45
2021/06/29 11:10:13;;;;;;;2.58;2.22;;;;;;;30.12;36.04;99096.53;1749149;82;20972;-46
2021/06/29 11:12:52;;;;;;;3.30;2.47;;;;;;;30.37;35.80;99098.45;1747831;81;21027;-46
2021/06/29 11:15:22;;;;;;;3.02;2.45;;;;;;;30.56;34.43;99105.19;1754386;81;21554;-46
2021/06/29 11:17:53;;;;;;;2.60;2.40;;;;;;;30.53;35.30;99092.22;1727305;81;21217;-46
2021/06/29 11:20:27;;;;;;;2.58;2.37;;;;;;;30.53;34.94;99097.81;1754103;81;21055;-45
2021/06/29 11:23:05;;;;;;;5.62;2.50;;;;;;;30.41;35.21;99089.82;1750477;81;20948;-45
2021/06/29 11:25:53;;;;;;;3.03;2.50;;;;;;;30.31;35.28;99079.48;1754528;81;20979;-45
2021/06/29 11:28:32;;;;;;;3.33;2.55;;;;;;;30.11;35.84;99082.44;1721315;82;21570;-45
2021/06/29 11:31:22;;;;;;;4.00;2.55;;;;;;;29.85;35.24;99074.10;1721429;83;21142;-45
2021/06/29 11:33:59;;;;;;;3.75;2.40;;;;;;;29.71;35.96;99074.39;1686354;84;21048;-45
2021/06/29 11:36:32;;;;;;;2.58;2.37;;;;;;;29.77;37.94;99082.16;1686352;85;21080;-45
2021/06/29 11:39:05;;;;;;;2.58;2.20;;;;;;;30.01;36.27;99076.91;1686459;85;21523;-46
2021/06/29 11:41:36;;;;;;;4.15;2.20;;;;;;;30.26;34.14;99080.88;1718925;83;21045;-46
2021/06/29 11:44:11;;;;;;;3.37;2.25;;;;;;;30.53;35.99;99084.45;1721364;83;21144;-46
2021/06/29 11:47:02;;;;;;;2.70;2.40;;;;;;;30.94;34.50;99082.03;1721303;83;21045;-46